Time;durP1;ratioP1;P1;durP2;ratioP2;P2;SDS_P1;SDS_P2;PMS_P1;PMS_P2;Temp;Humidity;BMP_temperature;BMP_pressure;BME280_temperature;BME280_humidity;BME280_pressure;Samples;Min_cycle;Max_cycle;Signal;HPM_P1;HPM_P2
2022/03/15 00:00:52;;;;;;;4.85;4.03;;;;;;;12.33;38.70;96425.84;4972500;28;20157;-69
2022/03/15 00:03:18;;;;;;;6.40;4.35;;;;;;;12.22;38.68;96390.47;4973911;28;20030;-68
2022/03/15 00:05:43;;;;;;;8.05;4.68;;;;;;;12.34;38.90;96409.56;4973727;28;20023;-69
2022/03/15 00:08:09;;;;;;;6.00;4.55;;;;;;;11.45;39.52;96279.25;4973468;28;20027;-68
2022/03/15 00:10:35;;;;;;;7.60;4.78;;;;;;;11.90;39.55;96335.88;4973343;28;20059;-69
2022/03/15 00:13:00;;;;;;;6.18;5.05;;;;;;;12.12;39.70;96361.25;4973723;28;20015;-69
2022/03/15 00:15:26;;;;;;;5.47;4.88;;;;;;;11.34;39.51;96245.78;4973733;28;20031;-68
2022/03/15 00:17:53;;;;;;;8.65;4.78;;;;;;;11.92;39.70;96330.25;4973727;28;20027;-68
2022/03/15 00:20:22;;;;;;;5.75;5.15;;;;;;;12.11;39.74;96359.66;4973060;28;20109;-70
2022/03/15 00:22:48;;;;;;;9.98;6.20;;;;;;;11.48;40.11;96299.22;4973602;28;20475;-69
2022/03/15 00:25:17;;;;;;;6.50;5.78;;;;;;;12.04;40.25;96348.56;4956436;28;20026;-69
2022/03/15 00:27:47;;;;;;;7.07;5.85;;;;;;;12.32;40.03;96397.56;4973459;28;20042;-68
2022/03/15 00:30:14;;;;;;;9.65;5.72;;;;;;;12.04;40.05;96353.88;4955638;28;20034;-69
2022/03/15 00:35:10;;;;;;;7.90;6.60;;;;;;;12.32;39.39;96397.56;4971744;28;20058;-61
2022/03/15 00:37:37;;;;;;;7.57;6.00;;;;;;;12.06;40.28;96395.19;4973229;28;20492;-61
2022/03/15 00:40:04;;;;;;;6.57;5.82;;;;;;;12.10;40.49;96395.41;4972939;28;20411;-61
2022/03/15 00:42:29;;;;;;;7.22;6.38;;;;;;;11.87;40.39;96368.41;4972869;28;20039;-62
2022/03/15 00:44:55;;;;;;;7.38;6.45;;;;;;;12.00;40.12;96387.53;4973092;28;20034;-61
2022/03/15 00:47:20;;;;;;;10.10;5.90;;;;;;;11.93;40.34;96377.19;4973143;28;20029;-61
2022/03/15 00:49:45;;;;;;;9.68;6.18;;;;;;;11.93;40.49;96377.97;4972763;28;20468;-62
2022/03/15 00:52:11;;;;;;;7.13;5.57;;;;;;;11.84;40.21;96365.53;4972779;28;20106;-62
2022/03/15 00:54:36;;;;;;;8.65;5.68;;;;;;;11.81;40.59;96358.84;4972881;28;20105;-62
2022/03/15 00:57:02;;;;;;;7.28;5.90;;;;;;;11.83;40.97;96364.75;4972897;28;20143;-60
2022/03/15 00:59:27;;;;;;;10.48;5.72;;;;;;;11.88;40.88;96382.56;4972628;28;20027;-61
2022/03/15 01:01:53;;;;;;;6.68;6.00;;;;;;;11.40;41.75;96351.22;4955609;28;20026;-61
2022/03/15 01:04:18;;;;;;;7.97;5.93;;;;;;;11.40;41.96;96337.91;4972848;28;20106;-61
2022/03/15 01:06:44;;;;;;;8.27;6.03;;;;;;;11.70;41.82;96381.34;4972717;28;20086;-62
2022/03/15 01:09:09;;;;;;;7.55;6.32;;;;;;;11.67;41.62;96376.59;4971290;28;20073;-61
2022/03/15 01:11:36;;;;;;;6.72;6.13;;;;;;;11.64;41.31;96371.81;4972698;28;20051;-60
2022/03/15 01:14:01;;;;;;;6.68;5.93;;;;;;;11.61;41.29;96373.16;4971559;28;20023;-59
2022/03/15 01:16:27;;;;;;;7.60;5.95;;;;;;;11.60;41.75;96374.25;4972176;28;20491;-62
2022/03/15 01:18:52;;;;;;;8.43;6.22;;;;;;;11.41;41.86;96358.16;4971124;28;20037;-62
2022/03/15 01:21:19;;;;;;;11.30;6.90;;;;;;;11.60;41.71;96386.78;4972457;28;20142;-61
2022/03/15 01:23:48;;;;;;;10.18;6.85;;;;;;;11.57;41.95;96385.47;4971570;28;20139;-61
2022/03/15 01:26:14;;;;;;;7.15;6.45;;;;;;;11.50;41.93;96369.00;4972795;28;20019;-61
2022/03/15 01:28:40;;;;;;;8.10;6.15;;;;;;;11.45;41.88;96361.84;4972535;28;20033;-61
2022/03/15 01:31:06;;;;;;;9.02;7.07;;;;;;;11.45;42.02;96363.72;4972516;28;20037;-61
2022/03/15 01:33:31;;;;;;;10.65;6.70;;;;;;;11.48;42.22;96363.16;4971290;28;20110;-61
2022/03/15 01:35:56;;;;;;;11.50;6.50;;;;;;;11.54;41.89;96361.25;4972501;28;20106;-61
2022/03/15 01:38:22;;;;;;;9.02;6.65;;;;;;;11.50;42.51;96342.34;4972261;28;20054;-60
2022/03/15 01:40:47;;;;;;;7.93;6.35;;;;;;;11.59;42.48;96353.22;4971053;28;20022;-61
2022/03/15 01:43:13;;;;;;;11.38;6.80;;;;;;;11.33;42.91;96316.13;4972533;28;20023;-61
2022/03/15 01:45:40;;;;;;;8.63;6.65;;;;;;;11.36;42.31;96314.75;4972506;28;20033;-61
2022/03/15 01:48:07;;;;;;;7.82;6.50;;;;;;;11.35;42.45;96334.50;4972455;28;20033;-61
2022/03/15 01:50:34;;;;;;;8.77;6.65;;;;;;;11.53;42.47;96344.47;4970826;28;20031;-61
2022/03/15 01:53:00;;;;;;;9.50;6.65;;;;;;;11.44;43.09;96328.28;4972412;28;20503;-61
2022/03/15 01:55:26;;;;;;;7.35;6.60;;;;;;;11.30;42.95;96319.34;4972379;28;20472;-61
2022/03/15 01:57:51;;;;;;;9.32;6.38;;;;;;;11.47;42.61;96340.28;4972380;28;20034;-61
2022/03/15 02:00:19;;;;;;;11.13;6.90;;;;;;;11.36;43.02;96328.91;4972002;28;20026;-61
2022/03/15 02:02:45;;;;;;;7.72;6.53;;;;;;;11.44;42.93;96336.28;4972320;28;20027;-61
2022/03/15 02:05:11;;;;;;;10.93;7.00;;;;;;;11.44;42.85;96335.50;4972435;28;20454;-61
2022/03/15 02:07:37;;;;;;;7.53;6.80;;;;;;;11.41;42.80;96333.38;4972272;28;20019;-61
2022/03/15 02:10:03;;;;;;;9.80;7.57;;;;;;;11.43;43.10;96324.03;4954608;28;20026;-61
2022/03/15 02:12:29;;;;;;;8.85;7.13;;;;;;;11.36;43.46;96312.91;4954833;28;20023;-61
2022/03/15 02:15:01;;;;;;;8.07;7.28;;;;;;;11.23;43.28;96284.25;4972314;28;20038;-62
2022/03/15 02:17:27;;;;;;;9.18;7.32;;;;;;;11.40;43.67;96308.59;4972257;28;20113;-61
2022/03/15 02:19:52;;;;;;;8.55;7.55;;;;;;;11.23;43.72;96278.94;4971968;28;20071;-61
2022/03/15 02:22:19;;;;;;;8.40;7.40;;;;;;;11.31;43.24;96309.47;4970750;28;20037;-62
2022/03/15 02:24:45;;;;;;;7.90;7.10;;;;;;;11.17;44.01;96298.69;4954739;28;20023;-63
2022/03/15 02:27:10;;;;;;;10.00;7.47;;;;;;;11.36;44.24;96312.91;4954748;28;20029;-61
2022/03/15 02:29:36;;;;;;;12.98;8.43;;;;;;;11.13;43.50;96269.16;4974113;28;20034;-61
2022/03/15 02:32:01;;;;;;;8.65;7.80;;;;;;;11.32;43.65;96309.22;4975019;28;20035;-60
2022/03/15 02:34:27;;;;;;;9.30;8.20;;;;;;;11.35;43.64;96321.16;4975309;28;20023;-62
2022/03/15 02:36:52;;;;;;;8.73;7.70;;;;;;;11.34;43.55;96315.06;4958147;28;20439;-61
2022/03/15 02:39:18;;;;;;;8.43;7.60;;;;;;;11.18;43.64;96294.94;4975017;28;20027;-60
2022/03/15 02:41:43;;;;;;;9.73;7.97;;;;;;;11.12;43.14;96280.09;4975116;28;20445;-61
2022/03/15 02:44:09;;;;;;;8.13;7.32;;;;;;;11.25;43.59;96298.06;4975409;28;20026;-62
2022/03/15 02:46:36;;;;;;;9.20;7.88;;;;;;;11.19;43.38;96307.97;4975326;28;20105;-60
2022/03/15 02:49:02;;;;;;;10.25;7.22;;;;;;;11.02;44.00;96272.97;4974953;28;20031;-61
2022/03/15 02:51:27;;;;;;;8.60;7.70;;;;;;;11.18;43.92;96286.97;4974968;28;20039;-61
2022/03/15 02:53:54;;;;;;;9.60;8.60;;;;;;;11.23;44.11;96291.47;4975155;28;20388;-61
2022/03/15 02:56:21;;;;;;;7.90;7.13;;;;;;;11.12;43.63;96280.09;4957757;28;20066;-62
2022/03/15 02:58:46;;;;;;;8.60;7.65;;;;;;;11.14;43.52;96277.94;4974901;28;20030;-61
2022/03/15 03:01:12;;;;;;;9.18;8.15;;;;;;;11.12;43.30;96269.44;4974761;28;20031;-62
2022/03/15 03:03:38;;;;;;;9.52;8.15;;;;;;;11.09;43.86;96275.31;4957472;28;20058;-62
2022/03/15 03:06:04;;;;;;;8.88;7.60;;;;;;;11.19;43.56;96280.56;4957631;28;20042;-62
2022/03/15 03:08:30;;;;;;;9.30;8.18;;;;;;;10.98;44.02;96263.16;4974494;28;20030;-62
2022/03/15 03:10:57;;;;;;;12.18;7.75;;;;;;;11.13;44.05;96271.03;4974651;28;20053;-61
2022/03/15 03:13:26;;;;;;;11.10;7.95;;;;;;;11.13;44.10;96282.47;4974587;28;20034;-62
2022/03/15 03:15:56;;;;;;;12.00;8.13;;;;;;;11.06;44.42;96291.88;4974488;28;20039;-62
2022/03/15 03:18:23;;;;;;;9.20;7.13;;;;;;;11.01;44.29;96267.94;4974559;28;20023;-62
2022/03/15 03:20:49;;;;;;;8.68;7.78;;;;;;;10.91;44.06;96258.16;4974445;28;20085;-61
2022/03/15 03:23:15;;;;;;;8.80;7.90;;;;;;;10.88;44.31;96246.19;4957356;28;20102;-60
2022/03/15 03:25:41;;;;;;;11.95;8.10;;;;;;;11.06;43.78;96266.03;4974597;28;20550;-60
2022/03/15 03:28:07;;;;;;;9.95;7.35;;;;;;;11.05;43.70;96260.97;4974490;28;20030;-60
2022/03/15 03:30:33;;;;;;;10.75;6.93;;;;;;;11.18;43.74;96285.09;4972870;28;20034;-60
2022/03/15 03:32:58;;;;;;;8.73;7.38;;;;;;;11.07;43.81;96266.81;4974023;28;20026;-60
2022/03/15 03:35:25;;;;;;;9.27;7.78;;;;;;;11.01;43.97;96249.31;4974527;28;20109;-61
2022/03/15 03:37:50;;;;;;;8.32;7.53;;;;;;;11.11;43.71;96265.19;4974153;28;20034;-61
2022/03/15 03:40:16;;;;;;;8.35;7.50;;;;;;;10.84;44.26;96234.50;4972356;28;20027;-61
2022/03/15 03:42:41;;;;;;;8.25;7.55;;;;;;;11.07;44.11;96272.16;4973254;28;20503;-61
2022/03/15 03:45:07;;;;;;;7.80;7.00;;;;;;;10.80;43.91;96232.69;4974103;28;20050;-61
2022/03/15 03:47:32;;;;;;;8.20;7.47;;;;;;;10.96;43.84;96257.34;4974144;28;20487;-61
2022/03/15 03:49:58;;;;;;;8.52;7.72;;;;;;;10.87;43.96;96255.25;4956306;28;20121;-61
2022/03/15 03:52:23;;;;;;;9.85;7.78;;;;;;;10.94;43.69;96262.91;4973828;28;20033;-61
2022/03/15 03:54:49;;;;;;;10.18;7.65;;;;;;;10.87;43.86;96255.25;4972736;28;20029;-61
2022/03/15 03:57:14;;;;;;;8.65;7.75;;;;;;;10.75;44.17;96246.84;4956539;28;20035;-61
2022/03/15 03:59:39;;;;;;;10.88;7.40;;;;;;;10.97;43.76;96280.22;4972252;28;20117;-60
2022/03/15 04:02:05;;;;;;;12.45;8.13;;;;;;;10.81;43.94;96250.25;4956156;28;20062;-61
2022/03/15 04:04:30;;;;;;;9.73;8.13;;;;;;;10.56;43.87;96261.88;4973804;28;20384;-61
2022/03/15 04:06:56;;;;;;;8.70;7.60;;;;;;;10.78;44.13;96267.56;4956489;28;20029;-61
2022/03/15 04:09:23;;;;;;;9.15;8.18;;;;;;;10.65;43.98;96253.03;4973543;28;20042;-62
2022/03/15 04:11:49;;;;;;;9.30;7.22;;;;;;;10.60;44.04;96228.31;4973545;28;20089;-61
2022/03/15 04:14:15;;;;;;;8.55;7.68;;;;;;;10.79;43.87;96269.16;4973298;28;20022;-61
2022/03/15 04:16:42;;;;;;;10.65;7.65;;;;;;;10.75;44.69;96265.47;4973352;28;20563;-61
2022/03/15 04:19:08;;;;;;;11.00;7.63;;;;;;;10.66;43.74;96256.47;4973023;28;20391;-62
2022/03/15 04:21:33;;;;;;;9.18;8.07;;;;;;;10.75;44.02;96257.50;4971822;28;20027;-61
2022/03/15 04:23:58;;;;;;;8.02;7.18;;;;;;;10.53;43.88;96225.94;4973505;28;20526;-60
2022/03/15 04:26:25;;;;;;;10.18;8.10;;;;;;;10.54;43.95;96232.06;4973566;28;20037;-62
2022/03/15 04:28:52;;;;;;;9.02;8.13;;;;;;;10.63;43.80;96257.81;4973050;28;20023;-63
2022/03/15 04:31:18;;;;;;;10.75;7.70;;;;;;;10.62;44.07;96250.91;4971935;28;20117;-62
2022/03/15 04:33:44;;;;;;;11.75;7.63;;;;;;;10.74;43.90;96263.06;4973313;28;20026;-62
2022/03/15 04:36:10;;;;;;;8.88;7.97;;;;;;;10.59;44.01;96250.66;4973318;28;20110;-62
2022/03/15 04:38:36;;;;;;;9.98;8.10;;;;;;;10.68;44.19;96271.09;4972858;28;20506;-61
2022/03/15 04:41:03;;;;;;;8.32;7.38;;;;;;;10.73;44.66;96274.78;4973039;28;20031;-62
2022/03/15 04:43:29;;;;;;;10.13;8.02;;;;;;;10.73;44.04;96278.25;4973118;28;20033;-62
2022/03/15 04:45:55;;;;;;;10.10;8.30;;;;;;;10.72;44.41;96278.53;4973105;28;20506;-61
2022/03/15 04:48:21;;;;;;;10.38;7.72;;;;;;;10.76;44.12;96277.69;4973258;28;20027;-61
2022/03/15 04:50:47;;;;;;;10.35;8.38;;;;;;;10.86;44.04;96277.63;4972128;28;20106;-62
2022/03/15 04:53:13;;;;;;;13.13;8.52;;;;;;;10.86;43.92;96280.28;4972888;28;20110;-61
2022/03/15 04:55:39;;;;;;;9.20;8.20;;;;;;;10.97;44.22;96280.22;4972912;28;20098;-61
2022/03/15 04:58:04;;;;;;;8.23;7.43;;;;;;;11.08;43.16;96282.50;4972878;28;20051;-61
2022/03/15 05:00:30;;;;;;;12.23;7.80;;;;;;;11.07;43.34;96272.94;4971225;28;20617;-61
2022/03/15 05:02:55;;;;;;;9.27;7.35;;;;;;;11.14;43.37;96260.09;4972715;28;20031;-61
2022/03/15 05:05:20;;;;;;;8.65;7.25;;;;;;;11.18;43.18;96276.31;4972798;28;20113;-62
2022/03/15 05:07:46;;;;;;;9.43;7.53;;;;;;;11.16;43.31;96259.81;4972766;28;20027;-62
2022/03/15 05:12:56;;;;;;;12.68;7.35;;;;;;;10.80;42.58;96249.47;4972679;28;20498;-61
2022/03/15 05:15:21;;;;;;;11.55;7.05;;;;;;;11.10;43.36;96263.59;4972784;28;20023;-62
2022/03/15 05:17:47;;;;;;;8.88;7.97;;;;;;;11.16;42.63;96262.50;4971693;28;20114;-62
2022/03/15 05:20:14;;;;;;;9.52;8.13;;;;;;;10.73;42.60;96201.06;4971073;28;20113;-63
2022/03/15 05:22:40;;;;;;;15.38;8.90;;;;;;;10.84;43.35;96257.66;4972603;28;20026;-63
2022/03/15 05:25:06;;;;;;;11.50;8.30;;;;;;;10.71;43.67;96259.09;4971303;28;20027;-62
2022/03/15 05:27:35;;;;;;;9.23;7.82;;;;;;;10.91;43.34;96261.63;4971227;28;20380;-63
2022/03/15 05:30:00;;;;;;;13.27;7.97;;;;;;;11.06;43.27;96275.88;4972430;28;20027;-62
2022/03/15 05:32:27;;;;;;;13.85;7.60;;;;;;;10.95;43.82;96251.19;4972432;28;20030;-63
2022/03/15 05:34:52;;;;;;;10.43;8.63;;;;;;;11.10;43.70;96279.56;4972403;28;20523;-62
2022/03/15 05:37:17;;;;;;;13.18;8.63;;;;;;;11.10;43.03;96276.91;4972376;28;20023;-62
2022/03/15 05:39:43;;;;;;;9.27;8.27;;;;;;;10.08;44.60;96245.59;4971971;28;20030;-63
2022/03/15 05:42:12;;;;;;;10.27;7.75;;;;;;;9.33;46.89;96254.34;4972247;28;20088;-61
2022/03/15 05:44:37;;;;;;;11.93;8.18;;;;;;;9.43;47.54;96281.94;4972403;28;20500;-61
2022/03/15 05:47:03;;;;;;;11.77;8.90;;;;;;;9.15;48.72;96302.66;4971395;28;20109;-62
2022/03/15 05:49:28;;;;;;;13.82;8.43;;;;;;;8.82;49.10;96293.38;4970940;28;20034;-63
2022/03/15 05:51:56;;;;;;;11.45;8.23;;;;;;;9.04;48.64;96270.03;4972509;28;20516;-62
2022/03/15 05:54:22;;;;;;;10.10;8.60;;;;;;;9.02;49.41;96311.97;4954877;28;20731;-65
2022/03/15 05:56:51;;;;;;;10.05;8.13;;;;;;;8.56;50.91;96313.78;4972507;28;20399;-64
2022/03/15 05:59:17;;;;;;;10.45;8.18;;;;;;;8.24;51.45;96308.59;4954763;28;20023;-64
2022/03/15 06:01:42;;;;;;;11.32;8.43;;;;;;;8.26;50.94;96288.72;4972323;28;20063;-63
2022/03/15 06:04:10;;;;;;;11.13;8.25;;;;;;;8.91;49.31;96291.00;4974901;28;20486;-61
2022/03/15 06:06:36;;;;;;;9.27;7.57;;;;;;;8.99;49.38;96296.56;4975974;28;20030;-60
2022/03/15 06:09:08;;;;;;;12.32;7.93;;;;;;;9.78;47.86;96291.72;4974399;28;20022;-63
2022/03/15 06:11:34;;;;;;;14.70;9.27;;;;;;;10.11;46.81;96288.38;4953712;28;20039;-60
2022/03/15 06:14:00;;;;;;;9.70;7.78;;;;;;;10.43;46.11;96297.03;4974670;28;20033;-60
2022/03/15 06:16:26;;;;;;;9.70;7.60;;;;;;;10.07;46.42;96295.31;4975754;28;20022;-61
2022/03/15 06:18:51;;;;;;;14.63;9.13;;;;;;;10.24;46.22;96287.06;4973423;28;20027;-60
2022/03/15 06:21:17;;;;;;;12.15;8.27;;;;;;;10.15;45.88;96281.47;4975504;28;20109;-59
2022/03/15 06:23:43;;;;;;;15.32;9.18;;;;;;;10.33;46.29;96293.38;4975726;28;20042;-59
2022/03/15 06:26:09;;;;;;;12.02;8.73;;;;;;;10.69;45.67;96290.50;4958633;28;20091;-60
2022/03/15 06:28:36;;;;;;;9.50;7.15;;;;;;;11.06;45.03;96284.66;4974098;28;20031;-61
2022/03/15 06:31:02;;;;;;;12.68;8.60;;;;;;;11.38;44.72;96281.47;4975558;28;20027;-62
2022/03/15 06:33:28;;;;;;;19.17;8.13;;;;;;;11.52;43.88;96264.81;4974498;28;20114;-63
2022/03/15 06:35:54;;;;;;;11.85;8.38;;;;;;;11.85;43.34;96279.94;4975482;28;20114;-62
2022/03/15 06:38:20;;;;;;;12.43;8.50;;;;;;;11.98;43.51;96267.81;4975416;28;20369;-65
2022/03/15 06:40:47;;;;;;;15.05;8.02;;;;;;;12.04;42.67;96266.66;4975237;28;20027;-62
2022/03/15 06:43:13;;;;;;;15.50;8.43;;;;;;;12.22;42.16;96273.09;4974114;28;20459;-62
2022/03/15 06:45:43;;;;;;;10.77;8.55;;;;;;;12.34;42.39;96297.50;4975326;28;20082;-61
2022/03/15 06:48:09;;;;;;;10.73;7.82;;;;;;;12.42;42.20;96288.84;4956751;28;20030;-62
2022/03/15 06:50:35;;;;;;;11.63;7.68;;;;;;;12.47;41.81;96275.44;4974791;28;20034;-62
2022/03/15 06:53:01;;;;;;;11.07;7.93;;;;;;;12.57;41.70;96271.84;4975209;28;20033;-64
2022/03/15 06:55:26;;;;;;;12.07;7.70;;;;;;;11.36;42.99;96277.47;4973744;28;20468;-64
2022/03/15 06:57:52;;;;;;;11.43;8.23;;;;;;;11.86;42.69;96262.88;4975224;28;20102;-63
2022/03/15 07:00:18;;;;;;;11.90;8.23;;;;;;;12.01;42.43;96269.09;4974730;28;20400;-64
2022/03/15 07:02:43;;;;;;;12.13;7.78;;;;;;;11.57;43.34;96278.09;4973895;28;20466;-63
2022/03/15 07:05:09;;;;;;;10.50;8.30;;;;;;;11.11;44.38;96286.50;4974857;28;20058;-63
2022/03/15 07:07:35;;;;;;;17.17;8.43;;;;;;;11.79;43.28;96289.06;4974619;28;20033;-64
2022/03/15 07:10:05;;;;;;;11.00;8.57;;;;;;;11.37;43.95;96287.88;4957171;28;20034;-64
2022/03/15 07:12:31;;;;;;;9.57;7.68;;;;;;;12.44;42.64;96294.72;4974723;28;20023;-64
2022/03/15 07:14:57;;;;;;;10.02;7.20;;;;;;;13.06;41.15;96283.16;4972474;28;20403;-64
2022/03/15 07:17:22;;;;;;;8.73;7.22;;;;;;;13.44;40.39;96290.00;4974559;28;20035;-63
2022/03/15 07:19:48;;;;;;;9.18;6.60;;;;;;;13.12;39.58;96237.34;4957447;28;20031;-65
2022/03/15 07:22:13;;;;;;;10.13;6.57;;;;;;;12.85;40.00;96232.72;4955219;29;20110;-65
2022/03/15 07:24:39;;;;;;;7.53;6.70;;;;;;;13.76;39.86;96312.44;4955486;29;20027;-66
2022/03/15 07:27:04;;;;;;;8.27;7.40;;;;;;;13.63;39.37;96281.94;4955502;29;20023;-65
2022/03/15 07:29:29;;;;;;;7.55;6.70;;;;;;;13.79;39.31;96303.84;4937953;29;20031;-65
2022/03/15 07:31:55;;;;;;;8.13;6.00;;;;;;;13.92;39.06;96303.06;4954769;29;20023;-64
2022/03/15 07:34:21;;;;;;;10.15;6.70;;;;;;;13.22;39.49;96304.00;4966217;28;20030;-64
2022/03/15 07:36:47;;;;;;;9.50;6.28;;;;;;;13.67;39.38;96244.72;4973298;28;20034;-64
2022/03/15 07:39:13;;;;;;;9.57;6.57;;;;;;;13.78;39.00;96316.41;4967560;28;20030;-64
2022/03/15 07:41:40;;;;;;;10.55;6.85;;;;;;;13.95;39.48;96297.13;4973858;28;20117;-64
2022/03/15 07:44:09;;;;;;;7.78;6.10;;;;;;;14.16;38.57;96312.78;4974191;28;20074;-64
2022/03/15 07:46:36;;;;;;;11.02;5.95;;;;;;;12.98;39.97;96255.22;4967635;28;20085;-64
2022/03/15 07:49:02;;;;;;;6.30;5.70;;;;;;;13.26;40.20;96309.56;4954049;28;20133;-65
2022/03/15 07:51:31;;;;;;;7.03;5.55;;;;;;;13.69;39.29;96294.13;4954894;28;20392;-65
2022/03/15 07:53:56;;;;;;;7.57;5.10;;;;;;;13.79;39.30;96293.16;4937354;29;20042;-62
2022/03/15 07:56:22;;;;;;;9.55;5.72;;;;;;;13.35;40.00;96312.34;4954764;28;20031;-64
2022/03/15 07:58:48;;;;;;;5.70;5.13;;;;;;;13.19;40.62;96303.75;4953142;29;20465;-64
2022/03/15 08:01:13;;;;;;;6.63;5.00;;;;;;;13.06;40.14;96273.25;4937240;28;20066;-65
2022/03/15 08:03:39;;;;;;;20.42;6.05;;;;;;;13.99;39.00;96275.91;4957033;28;20034;-63
2022/03/15 08:06:04;;;;;;;13.75;5.80;;;;;;;14.30;38.27;96286.81;4973854;28;20034;-63
2022/03/15 08:08:30;;;;;;;6.35;5.05;;;;;;;13.86;38.33;96268.69;4973497;28;20082;-63
2022/03/15 08:10:55;;;;;;;8.63;5.10;;;;;;;14.35;38.13;96294.72;4973360;28;20472;-63
2022/03/15 08:13:21;;;;;;;8.18;5.38;;;;;;;14.84;37.47;96303.88;4973652;28;20105;-64
2022/03/15 08:16:10;;;;;;;9.38;5.50;;;;;;;15.26;37.36;96301.84;4973592;28;20109;-64
2022/03/15 08:18:44;;;;;;;6.32;4.55;;;;;;;15.56;36.71;96298.41;4969894;28;20511;-63
2022/03/15 08:21:10;;;;;;;11.50;5.82;;;;;;;15.01;36.88;96293.31;4953972;29;20250;-64
2022/03/15 08:23:36;;;;;;;11.10;5.32;;;;;;;15.38;36.46;96288.66;4954430;28;20114;-64
2022/03/15 08:26:01;;;;;;;19.33;5.50;;;;;;;15.01;36.51;96277.22;4953988;28;20019;-64
2022/03/15 08:28:27;;;;;;;8.63;5.03;;;;;;;15.22;36.40;96263.34;4936553;29;20034;-64
2022/03/15 08:30:54;;;;;;;8.98;4.93;;;;;;;15.21;36.61;96264.44;4952658;28;20035;-64
2022/03/15 08:33:20;;;;;;;13.23;5.25;;;;;;;14.86;36.88;96274.91;4954018;28;20027;-64
2022/03/15 08:35:46;;;;;;;10.43;5.32;;;;;;;14.40;38.05;96267.84;4953159;28;20400;-64
2022/03/15 08:38:12;;;;;;;6.68;5.53;;;;;;;14.35;38.14;96265.28;4936415;29;20029;-64
2022/03/15 08:40:38;;;;;;;12.18;5.85;;;;;;;13.63;39.79;96270.47;4953561;29;20069;-63
2022/03/15 08:43:04;;;;;;;7.30;5.70;;;;;;;12.99;40.38;96249.56;4936648;28;20114;-64
2022/03/15 08:45:30;;;;;;;13.15;5.30;;;;;;;13.00;40.52;96275.22;4953938;28;20103;-63
2022/03/15 08:47:56;;;;;;;6.78;5.25;;;;;;;13.30;40.03;96267.78;4936421;29;20134;-63
2022/03/15 08:50:22;;;;;;;9.40;5.60;;;;;;;14.76;38.21;96292.00;4967712;28;20078;-63
2022/03/15 08:52:48;;;;;;;7.50;5.43;;;;;;;14.78;37.44;96289.78;4955740;28;20554;-63
2022/03/15 08:55:14;;;;;;;6.15;5.03;;;;;;;13.90;39.31;96261.66;4972995;28;20019;-65
2022/03/15 08:57:40;;;;;;;9.25;5.32;;;;;;;13.66;39.40;96259.16;4971553;28;20049;-65
2022/03/15 09:00:07;;;;;;;10.02;5.70;;;;;;;13.04;40.38;96248.69;4972764;28;20391;-64
2022/03/15 09:02:34;;;;;;;7.75;5.22;;;;;;;14.09;38.55;96269.59;4972723;28;20045;-67
2022/03/15 09:04:59;;;;;;;6.68;5.35;;;;;;;14.73;37.43;96233.66;4961498;28;20134;-63
2022/03/15 09:07:30;;;;;;;10.60;4.93;;;;;;;14.69;36.38;96242.59;4953886;29;20546;-65
2022/03/15 09:09:55;;;;;;;8.23;5.07;;;;;;;13.41;39.02;96255.06;4953506;28;20019;-65
2022/03/15 09:12:21;;;;;;;8.40;5.85;;;;;;;13.44;38.61;96252.59;4953535;29;20031;-63
2022/03/15 09:14:46;;;;;;;6.22;5.30;;;;;;;14.57;37.34;96262.69;4953598;29;20114;-68
2022/03/15 09:17:12;;;;;;;9.00;5.75;;;;;;;13.78;37.30;96182.72;4953480;29;20408;-65
2022/03/15 09:19:40;;;;;;;6.15;5.10;;;;;;;12.09;40.68;96209.81;4959743;28;20436;-68
2022/03/15 09:22:07;;;;;;;13.25;5.13;;;;;;;12.99;40.22;96208.72;4972655;28;20122;-64
2022/03/15 09:24:36;;;;;;;6.75;6.05;;;;;;;13.93;38.00;96178.94;4972488;28;20033;-66
2022/03/15 09:27:03;;;;;;;7.15;5.28;;;;;;;15.65;35.93;96230.63;4973000;28;20081;-67
2022/03/15 09:29:29;;;;;;;6.10;5.00;;;;;;;15.56;35.05;96201.88;4972429;28;20027;-66
2022/03/15 09:31:55;;;;;;;11.23;5.63;;;;;;;14.60;37.34;96231.84;4955075;28;20019;-66
2022/03/15 09:34:22;;;;;;;5.18;4.68;;;;;;;14.61;37.31;96193.25;4971501;28;20030;-64
2022/03/15 09:36:50;;;;;;;7.70;4.88;;;;;;;14.07;38.01;96231.63;4972698;28;20023;-64
2022/03/15 09:39:18;;;;;;;6.20;4.88;;;;;;;15.96;35.80;96223.31;4976247;28;20077;-64
2022/03/15 09:41:49;;;;;;;8.85;4.80;;;;;;;17.27;33.43;96245.69;4959086;28;20034;-65
2022/03/15 09:44:17;;;;;;;8.98;4.60;;;;;;;18.14;32.32;96240.81;4976406;28;20543;-65
2022/03/15 09:46:51;;;;;;;6.00;4.18;;;;;;;18.86;31.27;96220.06;4958628;28;20031;-65
2022/03/15 09:49:20;;;;;;;7.15;4.63;;;;;;;18.24;30.68;96202.75;4973892;28;20051;-68
2022/03/15 09:51:46;;;;;;;6.15;4.95;;;;;;;17.15;32.13;96222.97;4957153;29;20102;-62
2022/03/15 09:54:13;;;;;;;6.05;4.70;;;;;;;18.00;31.82;96218.72;4957011;29;20110;-63
2022/03/15 09:56:39;;;;;;;5.55;4.60;;;;;;;17.36;32.18;96222.28;4956735;29;20106;-62
2022/03/15 09:59:16;;;;;;;6.13;5.25;;;;;;;17.73;33.33;96228.81;4956585;29;20054;-63
2022/03/15 10:01:50;;;;;;;5.55;4.32;;;;;;;18.43;30.86;96221.16;4956653;29;20142;-62
2022/03/15 10:04:16;;;;;;;7.65;5.25;;;;;;;16.31;33.16;96208.06;4957150;28;20031;-65
2022/03/15 10:06:45;;;;;;;6.57;4.45;;;;;;;16.29;34.42;96229.09;4974690;28;20065;-65
2022/03/15 10:09:11;;;;;;;6.35;4.40;;;;;;;16.83;33.66;96204.63;4975808;28;20031;-65
2022/03/15 10:11:37;;;;;;;5.53;4.45;;;;;;;15.14;36.08;96232.69;4975902;28;20058;-64
2022/03/15 10:14:04;;;;;;;5.15;4.35;;;;;;;14.83;36.89;96227.28;4974692;28;20123;-64
2022/03/15 10:16:35;;;;;;;9.75;4.63;;;;;;;15.09;36.99;96196.09;4975793;28;20479;-64
2022/03/15 10:19:02;;;;;;;10.32;4.97;;;;;;;15.41;36.26;96204.16;4975586;28;20030;-65
2022/03/15 10:21:44;;;;;;;7.32;4.60;;;;;;;16.22;34.87;96206.47;4974724;28;20077;-64
2022/03/15 10:24:10;;;;;;;5.45;4.70;;;;;;;16.09;35.12;96197.47;4958424;28;20030;-64
2022/03/15 10:26:38;;;;;;;9.60;5.28;;;;;;;17.28;33.44;96194.28;4975636;28;20054;-65
2022/03/15 10:29:05;;;;;;;8.73;5.20;;;;;;;17.65;32.93;96189.25;4975282;28;20027;-64
2022/03/15 10:31:30;;;;;;;5.82;4.85;;;;;;;16.78;34.05;96178.72;4975575;28;20055;-65
2022/03/15 10:34:01;;;;;;;6.57;4.38;;;;;;;17.93;32.92;96193.09;4975259;28;20081;-64
2022/03/15 10:36:36;;;;;;;7.40;4.40;;;;;;;15.56;36.07;96201.88;4957188;28;20027;-64
2022/03/15 10:39:02;;;;;;;8.80;4.28;;;;;;;14.79;37.63;96189.63;4973871;28;20031;-64
2022/03/15 10:41:28;;;;;;;8.35;4.20;;;;;;;16.16;35.18;96181.69;4975175;28;20078;-64
2022/03/15 10:43:54;;;;;;;6.65;4.10;;;;;;;16.41;34.67;96182.81;4975418;28;20023;-65
2022/03/15 10:46:25;;;;;;;13.43;5.32;;;;;;;17.24;33.50;96166.44;4973970;28;20084;-64
2022/03/15 10:49:01;;;;;;;10.18;3.65;;;;;;;17.52;32.21;96156.09;4972645;28;20042;-64
2022/03/15 10:51:27;;;;;;;12.90;4.03;;;;;;;17.08;32.86;96166.19;4958043;28;20031;-64
2022/03/15 10:54:00;;;;;;;3.75;3.45;;;;;;;16.91;33.87;96160.06;4956038;29;20031;-65
2022/03/15 10:56:26;;;;;;;7.10;3.53;;;;;;;17.35;33.43;96165.00;4954685;28;20027;-64
2022/03/15 10:59:01;;;;;;;6.72;4.38;;;;;;;19.06;31.54;96176.09;4938316;29;20134;-65
2022/03/15 11:01:29;;;;;;;5.15;3.63;;;;;;;19.80;30.32;96176.22;4955674;29;20517;-65
2022/03/15 11:04:00;;;;;;;5.60;3.75;;;;;;;18.16;31.57;96152.41;4938402;29;20156;-64
2022/03/15 11:06:39;;;;;;;7.30;3.88;;;;;;;19.37;30.48;96140.53;4969228;28;20041;-65
2022/03/15 11:09:24;;;;;;;7.47;3.40;;;;;;;20.50;29.34;96133.59;4974795;28;20380;-65
2022/03/15 11:12:04;;;;;;;5.50;3.40;;;;;;;20.79;28.63;96137.13;4973510;28;20026;-65
2022/03/15 11:14:40;;;;;;;4.93;3.65;;;;;;;20.01;28.90;96133.69;4973892;28;20117;-65
2022/03/15 11:17:26;;;;;;;4.00;3.58;;;;;;;19.55;29.23;96095.25;4974788;28;20097;-65
2022/03/15 11:19:59;;;;;;;9.90;4.35;;;;;;;19.20;30.14;96155.03;4973733;28;20050;-65
2022/03/15 11:22:27;;;;;;;5.13;3.50;;;;;;;16.73;34.83;96159.28;4974429;28;20047;-65
2022/03/15 11:25:35;;;;;;;5.35;4.03;;;;;;;15.66;36.96;96175.88;4974521;28;20053;-65
2022/03/15 11:28:04;;;;;;;3.53;3.17;;;;;;;16.45;35.81;96167.66;4914378;29;20032;-65
2022/03/15 11:30:30;;;;;;;5.10;3.78;;;;;;;16.98;35.28;96125.41;4948435;28;20101;-66
2022/03/15 11:32:56;;;;;;;6.55;3.63;;;;;;;18.33;33.37;96133.47;4974434;28;20034;-65
2022/03/15 11:35:25;;;;;;;4.72;3.33;;;;;;;17.91;33.51;96114.59;4972233;28;20199;-65